ADDS METAR Data INFO
IDs: Format: Raw Decoded Include TAF

Data at: 2247 UTC 11 Dec 2017

KGEU 112150Z 00000KT 10SM FEW200 BKN250 24/M16 A3018
KGEU 112047Z 00000KT 10SM FEW200 SCT220 24/M15 A3019
KGEU 111952Z 07007KT 10SM FEW200 SCT220 23/M13 A3021
KGEU 111855Z 09004KT 10SM FEW200 SCT220 23/M1 A3024
KGEU 111748Z 00000KT 10SM FEW200 BKN220 21/M10 A3027
KGEU 111652Z 00000KT 10SM SCT200 BKN240 17/M07 A3027
KGEU 111550Z 00000KT 10SM SCT200 BKN240 14/M10 A3025
KGEU 111447Z 36005KT 10SM OVC240 11/M09 A3024
KGEU 111409Z 00000KT 10SM OVC240 11/M09 A3024
KGEU 111245Z 00000KT 10SM OVC240 11/M10 A3023 RMK FIRST
KGEU 110147Z 02006KT 10SM SCT150 OVC200 21/M14 A3017 RMK LAST
KGEU 110048Z 02006KT 10SM SCT150 OVC200 22/M14 A3016
KGEU 102350Z 00000KT 10SM SCT150 OVC200 23/M12 A3016
KGEU 102250Z 05007KT 10SM SCT150 OVC200 26/M16 A3017
KGEU 102147Z 05010G15KT 10SM FEW180 OVC250 26/M16 A3017
KGEU 102049Z 05009G18KT 10SM FEW180 OVC250 26/M12 A3019
KGEU 101948Z 02007KT 10SM FEW180 OVC250 24/M11 A3023
KGEU 101850Z 03006KT 10SM FEW180 OVC250 23/M12 A3026
KGEU 101747Z 03003KT 10SM FEW180 BKN250 21/M09 A3030
KGEU 101647Z COR 00000KT 10SM FEW180 BKN250 19/M10 A3030
KGEU 101552Z 34003KT 10SM SKC 16/M09 A3029
KGEU 101449Z 01009KT 10SM SKC 12/M10 A3028
KGEU 101358Z 02006KT 10SM SKC 11/M10 A3028 RMK FIRST